sensor_id;sensor_type;location;lat;lon;timestamp;temperature;humidity
13245;DHT22;6689;53.400;12.486;2022-12-18T00:00:06;-3.40;1.00
13245;DHT22;6689;53.400;12.486;2022-12-18T00:02:33;-3.40;1.00
13245;DHT22;6689;53.400;12.486;2022-12-18T00:05:00;-3.40;1.00
13245;DHT22;6689;53.400;12.486;2022-12-18T00:07:29;-3.10;1.00
13245;DHT22;6689;53.400;12.486;2022-12-18T00:09:56;-3.60;1.00
13245;DHT22;6689;53.400;12.486;2022-12-18T00:12:23;-3.30;99.90
13245;DHT22;6689;53.400;12.486;2022-12-18T00:14:50;-3.40;1.00
13245;DHT22;6689;53.400;12.486;2022-12-18T00:17:20;-3.40;99.90
13245;DHT22;6689;53.400;12.486;2022-12-18T00:19:47;-3.40;99.90
13245;DHT22;6689;53.400;12.486;2022-12-18T00:22:14;-3.40;99.90
13245;DHT22;6689;53.400;12.486;2022-12-18T00:24:43;-3.40;99.90
13245;DHT22;6689;53.400;12.486;2022-12-18T00:27:10;-3.40;99.90
13245;DHT22;6689;53.400;12.486;2022-12-18T00:29:37;-3.30;99.90
13245;DHT22;6689;53.400;12.486;2022-12-18T00:32:04;-3.40;99.90
13245;DHT22;6689;53.400;12.486;2022-12-18T00:34:31;-3.50;99.90
13245;DHT22;6689;53.400;12.486;2022-12-18T00:36:58;-3.40;99.90
13245;DHT22;6689;53.400;12.486;2022-12-18T00:39:25;-3.40;99.90
13245;DHT22;6689;53.400;12.486;2022-12-18T00:41:54;-3.40;99.90
13245;DHT22;6689;53.400;12.486;2022-12-18T00:44:39;-3.40;99.90
13245;DHT22;6689;53.400;12.486;2022-12-18T00:47:06;-3.40;99.90
13245;DHT22;6689;53.400;12.486;2022-12-18T00:49:33;-3.50;99.90
13245;DHT22;6689;53.400;12.486;2022-12-18T00:52:00;-3.40;99.90
13245;DHT22;6689;53.400;12.486;2022-12-18T00:54:28;-3.50;99.90
13245;DHT22;6689;53.400;12.486;2022-12-18T00:56:57;-3.50;99.90
13245;DHT22;6689;53.400;12.486;2022-12-18T00:59:24;-3.60;99.90
13245;DHT22;6689;53.400;12.486;2022-12-18T01:01:51;-3.70;99.90
13245;DHT22;6689;53.400;12.486;2022-12-18T01:04:18;-3.60;99.90
13245;DHT22;6689;53.400;12.486;2022-12-18T01:06:48;-3.60;99.90
13245;DHT22;6689;53.400;12.486;2022-12-18T01:09:16;-3.50;99.90
13245;DHT22;6689;53.400;12.486;2022-12-18T01:11:43;-3.50;99.90
13245;DHT22;6689;53.400;12.486;2022-12-18T01:14:11;-3.50;99.90
13245;DHT22;6689;53.400;12.486;2022-12-18T01:16:38;-3.50;99.90
13245;DHT22;6689;53.400;12.486;2022-12-18T01:19:05;-3.50;99.90
13245;DHT22;6689;53.400;12.486;2022-12-18T01:21:33;-3.50;99.90
13245;DHT22;6689;53.400;12.486;2022-12-18T01:24:01;-3.50;99.90
13245;DHT22;6689;53.400;12.486;2022-12-18T01:26:28;-3.50;99.90
13245;DHT22;6689;53.400;12.486;2022-12-18T01:28:56;-3.50;99.90
13245;DHT22;6689;53.400;12.486;2022-12-18T01:31:27;-3.50;99.90
13245;DHT22;6689;53.400;12.486;2022-12-18T01:33:55;-3.50;99.90
13245;DHT22;6689;53.400;12.486;2022-12-18T01:36:24;-3.50;99.90
13245;DHT22;6689;53.400;12.486;2022-12-18T01:38:52;-3.50;99.90
13245;DHT22;6689;53.400;12.486;2022-12-18T01:41:22;-3.50;99.90
13245;DHT22;6689;53.400;12.486;2022-12-18T01:43:52;-3.50;99.90
13245;DHT22;6689;53.400;12.486;2022-12-18T01:46:21;-3.50;99.90
13245;DHT22;6689;53.400;12.486;2022-12-18T01:48:52;-3.50;99.90
13245;DHT22;6689;53.400;12.486;2022-12-18T01:51:20;-3.60;99.90
13245;DHT22;6689;53.400;12.486;2022-12-18T01:53:48;-3.60;99.90
13245;DHT22;6689;53.400;12.486;2022-12-18T01:56:18;-3.60;99.90
13245;DHT22;6689;53.400;12.486;2022-12-18T01:58:50;-3.70;99.90
13245;DHT22;6689;53.400;12.486;2022-12-18T02:01:21;-3.70;99.90
13245;DHT22;6689;53.400;12.486;2022-12-18T02:03:50;-3.70;99.90
13245;DHT22;6689;53.400;12.486;2022-12-18T02:06:20;-3.70;99.90
13245;DHT22;6689;53.400;12.486;2022-12-18T02:08:58;-3.80;99.90
13245;DHT22;6689;53.400;12.486;2022-12-18T02:11:40;-3.90;99.90
13245;DHT22;6689;53.400;12.486;2022-12-18T02:14:18;-3.80;99.90
13245;DHT22;6689;53.400;12.486;2022-12-18T02:16:52;-3.80;99.90
13245;DHT22;6689;53.400;12.486;2022-12-18T02:19:40;-3.80;99.90
13245;DHT22;6689;53.400;12.486;2022-12-18T02:22:23;-3.90;99.90
13245;DHT22;6689;53.400;12.486;2022-12-18T02:24:59;-3.80;99.90
13245;DHT22;6689;53.400;12.486;2022-12-18T02:27:30;-3.90;99.90
13245;DHT22;6689;53.400;12.486;2022-12-18T02:30:00;-3.90;99.90
13245;DHT22;6689;53.400;12.486;2022-12-18T02:32:31;-3.90;99.90
13245;DHT22;6689;53.400;12.486;2022-12-18T02:35:00;-3.80;99.90
13245;DHT22;6689;53.400;12.486;2022-12-18T02:37:29;-3.70;99.90
13245;DHT22;6689;53.400;12.486;2022-12-18T02:39:58;-3.80;99.90
13245;DHT22;6689;53.400;12.486;2022-12-18T02:42:32;-3.80;99.90
13245;DHT22;6689;53.400;12.486;2022-12-18T02:44:59;-4.00;99.90
13245;DHT22;6689;53.400;12.486;2022-12-18T02:47:30;-3.90;99.90
13245;DHT22;6689;53.400;12.486;2022-12-18T02:50:05;-3.90;99.90
13245;DHT22;6689;53.400;12.486;2022-12-18T02:52:35;-3.90;99.90
13245;DHT22;6689;53.400;12.486;2022-12-18T02:55:16;-3.90;99.90
13245;DHT22;6689;53.400;12.486;2022-12-18T02:57:51;-4.00;99.90
13245;DHT22;6689;53.400;12.486;2022-12-18T03:00:24;-4.00;99.90
13245;DHT22;6689;53.400;12.486;2022-12-18T03:03:01;-4.00;99.90
13245;DHT22;6689;53.400;12.486;2022-12-18T03:05:33;-4.10;99.90
13245;DHT22;6689;53.400;12.486;2022-12-18T03:08:06;-4.10;99.90
13245;DHT22;6689;53.400;12.486;2022-12-18T03:10:38;-4.10;99.90
13245;DHT22;6689;53.400;12.486;2022-12-18T03:13:12;-4.20;99.90
13245;DHT22;6689;53.400;12.486;2022-12-18T03:15:44;-4.10;99.90
13245;DHT22;6689;53.400;12.486;2022-12-18T03:18:16;-4.30;99.90
13245;DHT22;6689;53.400;12.486;2022-12-18T03:20:45;-4.20;99.90
13245;DHT22;6689;53.400;12.486;2022-12-18T03:23:16;-4.30;99.90
13245;DHT22;6689;53.400;12.486;2022-12-18T03:26:05;-4.30;99.90
13245;DHT22;6689;53.400;12.486;2022-12-18T03:28:38;-4.30;99.90
13245;DHT22;6689;53.400;12.486;2022-12-18T03:31:08;-4.30;99.90
13245;DHT22;6689;53.400;12.486;2022-12-18T03:33:39;-4.40;99.90
13245;DHT22;6689;53.400;12.486;2022-12-18T03:36:08;-4.30;99.90
13245;DHT22;6689;53.400;12.486;2022-12-18T03:38:35;-4.40;99.90
13245;DHT22;6689;53.400;12.486;2022-12-18T03:41:07;-4.40;99.90
13245;DHT22;6689;53.400;12.486;2022-12-18T03:43:45;-4.40;99.90
13245;DHT22;6689;53.400;12.486;2022-12-18T03:46:20;-4.40;99.90
13245;DHT22;6689;53.400;12.486;2022-12-18T03:48:55;-4.40;99.90
13245;DHT22;6689;53.400;12.486;2022-12-18T03:51:28;-4.40;99.90
13245;DHT22;6689;53.400;12.486;2022-12-18T03:53:59;-4.40;99.90
13245;DHT22;6689;53.400;12.486;2022-12-18T03:56:31;-4.50;99.90
13245;DHT22;6689;53.400;12.486;2022-12-18T03:59:01;-4.50;99.90
13245;DHT22;6689;53.400;12.486;2022-12-18T04:01:32;-4.50;99.90
13245;DHT22;6689;53.400;12.486;2022-12-18T04:04:01;-4.50;99.90
13245;DHT22;6689;53.400;12.486;2022-12-18T04:06:30;-4.60;99.90
13245;DHT22;6689;53.400;12.486;2022-12-18T04:08:58;-4.60;99.90
13245;DHT22;6689;53.400;12.486;2022-12-18T04:11:25;-4.50;99.90
13245;DHT22;6689;53.400;12.486;2022-12-18T04:13:57;-4.50;99.90
13245;DHT22;6689;53.400;12.486;2022-12-18T04:16:26;-4.50;99.90
13245;DHT22;6689;53.400;12.486;2022-12-18T04:18:53;-4.50;99.90
13245;DHT22;6689;53.400;12.486;2022-12-18T04:21:21;-4.40;99.90
13245;DHT22;6689;53.400;12.486;2022-12-18T04:23:48;-4.40;99.90
13245;DHT22;6689;53.400;12.486;2022-12-18T04:26:16;-4.40;99.90
13245;DHT22;6689;53.400;12.486;2022-12-18T04:28:43;-4.40;99.90
13245;DHT22;6689;53.400;12.486;2022-12-18T04:31:10;-4.40;99.90
13245;DHT22;6689;53.400;12.486;2022-12-18T04:33:39;-4.40;99.90
13245;DHT22;6689;53.400;12.486;2022-12-18T04:36:06;-4.50;99.90
13245;DHT22;6689;53.400;12.486;2022-12-18T04:38:34;-4.40;99.90
13245;DHT22;6689;53.400;12.486;2022-12-18T04:41:01;-4.50;99.90
13245;DHT22;6689;53.400;12.486;2022-12-18T04:43:28;-4.40;99.90
13245;DHT22;6689;53.400;12.486;2022-12-18T04:46:01;-4.50;99.90
13245;DHT22;6689;53.400;12.486;2022-12-18T04:48:29;-4.60;99.90
13245;DHT22;6689;53.400;12.486;2022-12-18T04:50:57;-4.60;99.90
13245;DHT22;6689;53.400;12.486;2022-12-18T04:53:25;-4.60;99.90
13245;DHT22;6689;53.400;12.486;2022-12-18T04:56:02;-4.60;99.90
13245;DHT22;6689;53.400;12.486;2022-12-18T04:58:29;-4.60;99.90
13245;DHT22;6689;53.400;12.486;2022-12-18T05:00:57;-4.60;99.90
13245;DHT22;6689;53.400;12.486;2022-12-18T05:03:24;-4.60;99.90
13245;DHT22;6689;53.400;12.486;2022-12-18T05:05:51;-4.70;99.90
13245;DHT22;6689;53.400;12.486;2022-12-18T05:08:19;-4.60;99.90
13245;DHT22;6689;53.400;12.486;2022-12-18T05:10:47;-4.40;99.90
13245;DHT22;6689;53.400;12.486;2022-12-18T05:13:14;-4.60;99.90
13245;DHT22;6689;53.400;12.486;2022-12-18T05:15:41;-4.50;99.90
13245;DHT22;6689;53.400;12.486;2022-12-18T05:18:09;-4.60;99.90
13245;DHT22;6689;53.400;12.486;2022-12-18T05:20:39;-4.60;99.90
13245;DHT22;6689;53.400;12.486;2022-12-18T05:23:06;-4.70;99.90
13245;DHT22;6689;53.400;12.486;2022-12-18T05:25:35;-4.60;99.90
13245;DHT22;6689;53.400;12.486;2022-12-18T05:28:03;-4.60;99.90
13245;DHT22;6689;53.400;12.486;2022-12-18T05:30:30;-4.70;99.90
13245;DHT22;6689;53.400;12.486;2022-12-18T05:32:58;-4.70;99.90
13245;DHT22;6689;53.400;12.486;2022-12-18T05:35:25;-4.90;99.90
13245;DHT22;6689;53.400;12.486;2022-12-18T05:37:52;-4.80;99.90
13245;DHT22;6689;53.400;12.486;2022-12-18T05:40:19;-4.80;99.90
13245;DHT22;6689;53.400;12.486;2022-12-18T05:42:48;-4.90;99.90
13245;DHT22;6689;53.400;12.486;2022-12-18T05:45:15;-4.80;99.90
13245;DHT22;6689;53.400;12.486;2022-12-18T05:47:42;-4.80;99.90
13245;DHT22;6689;53.400;12.486;2022-12-18T05:50:09;-4.80;99.90
13245;DHT22;6689;53.400;12.486;2022-12-18T05:52:36;-4.80;99.90
13245;DHT22;6689;53.400;12.486;2022-12-18T05:55:04;-4.80;99.90
13245;DHT22;6689;53.400;12.486;2022-12-18T05:57:31;-4.80;99.90
13245;DHT22;6689;53.400;12.486;2022-12-18T06:00:00;-4.80;99.90
13245;DHT22;6689;53.400;12.486;2022-12-18T06:02:27;-4.70;99.90
13245;DHT22;6689;53.400;12.486;2022-12-18T06:04:54;-4.70;99.90
13245;DHT22;6689;53.400;12.486;2022-12-18T06:07:22;-4.80;99.90
13245;DHT22;6689;53.400;12.486;2022-12-18T06:09:49;-4.80;99.90
13245;DHT22;6689;53.400;12.486;2022-12-18T06:12:16;-4.60;99.90
13245;DHT22;6689;53.400;12.486;2022-12-18T06:14:44;-4.70;99.90
13245;DHT22;6689;53.400;12.486;2022-12-18T06:17:12;-4.70;99.90
13245;DHT22;6689;53.400;12.486;2022-12-18T06:19:40;-4.70;99.90
13245;DHT22;6689;53.400;12.486;2022-12-18T06:22:07;-4.80;99.90
13245;DHT22;6689;53.400;12.486;2022-12-18T06:24:34;-4.80;99.90
13245;DHT22;6689;53.400;12.486;2022-12-18T06:27:02;-4.70;99.90
13245;DHT22;6689;53.400;12.486;2022-12-18T06:29:29;-4.70;99.90
13245;DHT22;6689;53.400;12.486;2022-12-18T06:31:56;-4.70;99.90
13245;DHT22;6689;53.400;12.486;2022-12-18T06:34:25;-4.70;99.90
13245;DHT22;6689;53.400;12.486;2022-12-18T06:36:52;-4.70;99.90
13245;DHT22;6689;53.400;12.486;2022-12-18T06:39:19;-4.80;99.90
13245;DHT22;6689;53.400;12.486;2022-12-18T06:41:46;-4.70;99.90
13245;DHT22;6689;53.400;12.486;2022-12-18T06:44:13;-4.70;99.90
13245;DHT22;6689;53.400;12.486;2022-12-18T06:46:40;-4.70;99.90
13245;DHT22;6689;53.400;12.486;2022-12-18T06:49:08;-4.70;99.90
13245;DHT22;6689;53.400;12.486;2022-12-18T06:51:37;-4.70;99.90
13245;DHT22;6689;53.400;12.486;2022-12-18T06:54:04;-4.70;99.90
13245;DHT22;6689;53.400;12.486;2022-12-18T06:56:32;-4.60;99.90
13245;DHT22;6689;53.400;12.486;2022-12-18T06:58:59;-4.60;99.90
13245;DHT22;6689;53.400;12.486;2022-12-18T07:01:26;-4.60;99.90
13245;DHT22;6689;53.400;12.486;2022-12-18T07:03:54;-4.60;99.90
13245;DHT22;6689;53.400;12.486;2022-12-18T07:06:23;-4.60;99.90
13245;DHT22;6689;53.400;12.486;2022-12-18T07:08:53;-4.60;99.90
13245;DHT22;6689;53.400;12.486;2022-12-18T07:11:21;-4.50;99.90
13245;DHT22;6689;53.400;12.486;2022-12-18T07:13:48;-4.50;99.90
13245;DHT22;6689;53.400;12.486;2022-12-18T07:16:17;-4.50;99.90
13245;DHT22;6689;53.400;12.486;2022-12-18T07:18:45;-4.50;99.90
13245;DHT22;6689;53.400;12.486;2022-12-18T07:21:13;-4.50;99.90
13245;DHT22;6689;53.400;12.486;2022-12-18T07:23:41;-4.60;99.90
13245;DHT22;6689;53.400;12.486;2022-12-18T07:26:12;-4.50;99.90
13245;DHT22;6689;53.400;12.486;2022-12-18T07:28:41;-4.50;99.90
13245;DHT22;6689;53.400;12.486;2022-12-18T07:31:11;-4.50;99.90
13245;DHT22;6689;53.400;12.486;2022-12-18T07:33:38;-4.50;99.90
13245;DHT22;6689;53.400;12.486;2022-12-18T07:36:07;-4.50;99.90
13245;DHT22;6689;53.400;12.486;2022-12-18T07:38:35;-4.50;99.90
13245;DHT22;6689;53.400;12.486;2022-12-18T07:41:04;-4.50;99.90
13245;DHT22;6689;53.400;12.486;2022-12-18T07:43:33;-4.50;99.90
13245;DHT22;6689;53.400;12.486;2022-12-18T07:46:01;-4.50;99.90
13245;DHT22;6689;53.400;12.486;2022-12-18T07:48:28;-4.50;99.90
13245;DHT22;6689;53.400;12.486;2022-12-18T07:50:59;-4.40;99.90
13245;DHT22;6689;53.400;12.486;2022-12-18T07:53:27;-4.50;99.90
13245;DHT22;6689;53.400;12.486;2022-12-18T07:55:55;-4.20;99.90
13245;DHT22;6689;53.400;12.486;2022-12-18T07:58:23;-4.50;99.90
13245;DHT22;6689;53.400;12.486;2022-12-18T08:00:52;-4.50;99.90
13245;DHT22;6689;53.400;12.486;2022-12-18T08:03:20;-4.60;99.90
13245;DHT22;6689;53.400;12.486;2022-12-18T08:05:47;-4.50;99.90
13245;DHT22;6689;53.400;12.486;2022-12-18T08:08:14;-4.50;99.90
13245;DHT22;6689;53.400;12.486;2022-12-18T08:10:41;-4.60;99.90
13245;DHT22;6689;53.400;12.486;2022-12-18T08:13:08;-4.50;99.90
13245;DHT22;6689;53.400;12.486;2022-12-18T08:15:36;-4.50;99.90
13245;DHT22;6689;53.400;12.486;2022-12-18T08:18:04;-4.50;99.90
13245;DHT22;6689;53.400;12.486;2022-12-18T08:20:31;-4.50;99.90
13245;DHT22;6689;53.400;12.486;2022-12-18T08:22:59;-4.50;99.90
13245;DHT22;6689;53.400;12.486;2022-12-18T08:25:26;-4.40;99.90
13245;DHT22;6689;53.400;12.486;2022-12-18T08:27:53;-4.50;99.90
13245;DHT22;6689;53.400;12.486;2022-12-18T08:30:22;-4.40;99.90
13245;DHT22;6689;53.400;12.486;2022-12-18T08:32:51;-4.40;99.90
13245;DHT22;6689;53.400;12.486;2022-12-18T08:35:21;-4.50;99.90
13245;DHT22;6689;53.400;12.486;2022-12-18T08:37:48;-4.40;99.90
13245;DHT22;6689;53.400;12.486;2022-12-18T08:40:15;-4.40;99.90
13245;DHT22;6689;53.400;12.486;2022-12-18T08:42:42;-4.40;99.90
13245;DHT22;6689;53.400;12.486;2022-12-18T08:45:27;-4.30;99.90
13245;DHT22;6689;53.400;12.486;2022-12-18T08:47:55;-4.30;99.90
13245;DHT22;6689;53.400;12.486;2022-12-18T08:50:24;-4.30;99.90
13245;DHT22;6689;53.400;12.486;2022-12-18T08:52:51;-4.40;99.90
13245;DHT22;6689;53.400;12.486;2022-12-18T08:55:18;-4.00;99.90
13245;DHT22;6689;53.400;12.486;2022-12-18T08:57:48;-4.40;99.90
13245;DHT22;6689;53.400;12.486;2022-12-18T09:00:16;-4.40;99.90
13245;DHT22;6689;53.400;12.486;2022-12-18T09:02:43;-4.40;99.90
13245;DHT22;6689;53.400;12.486;2022-12-18T09:05:11;-4.30;99.90
13245;DHT22;6689;53.400;12.486;2022-12-18T09:07:39;-4.30;99.90
13245;DHT22;6689;53.400;12.486;2022-12-18T09:10:07;-4.30;99.90
13245;DHT22;6689;53.400;12.486;2022-12-18T09:12:34;-4.30;99.90
13245;DHT22;6689;53.400;12.486;2022-12-18T09:15:02;-4.20;99.90
13245;DHT22;6689;53.400;12.486;2022-12-18T09:17:29;-4.20;99.90
13245;DHT22;6689;53.400;12.486;2022-12-18T09:19:56;-4.30;99.90
13245;DHT22;6689;53.400;12.486;2022-12-18T09:22:24;-4.30;99.90
13245;DHT22;6689;53.400;12.486;2022-12-18T09:24:52;-4.30;99.90
13245;DHT22;6689;53.400;12.486;2022-12-18T09:27:20;-4.20;99.90
13245;DHT22;6689;53.400;12.486;2022-12-18T09:29:47;-4.20;99.90
13245;DHT22;6689;53.400;12.486;2022-12-18T09:32:14;-4.10;99.90
13245;DHT22;6689;53.400;12.486;2022-12-18T09:34:41;-4.10;99.90
13245;DHT22;6689;53.400;12.486;2022-12-18T09:37:09;-4.00;99.90
13245;DHT22;6689;53.400;12.486;2022-12-18T09:39:36;-3.90;99.90
13245;DHT22;6689;53.400;12.486;2022-12-18T09:42:05;-3.80;99.90
13245;DHT22;6689;53.400;12.486;2022-12-18T09:44:35;-3.90;99.90
13245;DHT22;6689;53.400;12.486;2022-12-18T09:47:10;-3.90;99.90
13245;DHT22;6689;53.400;12.486;2022-12-18T09:49:42;-3.90;99.90
13245;DHT22;6689;53.400;12.486;2022-12-18T09:52:14;-3.90;99.90
13245;DHT22;6689;53.400;12.486;2022-12-18T09:54:44;-3.90;99.90
13245;DHT22;6689;53.400;12.486;2022-12-18T09:57:17;-3.80;99.90
13245;DHT22;6689;53.400;12.486;2022-12-18T09:59:49;-3.80;99.90
13245;DHT22;6689;53.400;12.486;2022-12-18T10:02:20;-3.70;99.90
13245;DHT22;6689;53.400;12.486;2022-12-18T10:04:59;-3.60;99.90
13245;DHT22;6689;53.400;12.486;2022-12-18T10:07:43;-3.60;99.90
13245;DHT22;6689;53.400;12.486;2022-12-18T10:10:23;-3.60;99.90
13245;DHT22;6689;53.400;12.486;2022-12-18T10:13:02;-3.30;99.90
13245;DHT22;6689;53.400;12.486;2022-12-18T10:15:36;-3.50;99.90
13245;DHT22;6689;53.400;12.486;2022-12-18T10:18:17;-3.50;99.90
13245;DHT22;6689;53.400;12.486;2022-12-18T10:20:50;-3.50;99.90
13245;DHT22;6689;53.400;12.486;2022-12-18T10:23:22;-3.60;99.90
13245;DHT22;6689;53.400;12.486;2022-12-18T10:25:57;-3.50;99.90
13245;DHT22;6689;53.400;12.486;2022-12-18T10:28:32;-3.40;99.90
13245;DHT22;6689;53.400;12.486;2022-12-18T10:31:00;-3.40;99.90
13245;DHT22;6689;53.400;12.486;2022-12-18T10:33:29;-3.40;99.90
13245;DHT22;6689;53.400;12.486;2022-12-18T10:36:00;-3.30;99.90
13245;DHT22;6689;53.400;12.486;2022-12-18T10:38:30;-3.30;99.90
13245;DHT22;6689;53.400;12.486;2022-12-18T10:40:59;-3.30;99.90
13245;DHT22;6689;53.400;12.486;2022-12-18T10:43:29;-3.30;99.90
13245;DHT22;6689;53.400;12.486;2022-12-18T10:46:15;-3.30;99.90
13245;DHT22;6689;53.400;12.486;2022-12-18T10:48:53;-3.20;99.90
13245;DHT22;6689;53.400;12.486;2022-12-18T10:51:27;-3.20;99.90
13245;DHT22;6689;53.400;12.486;2022-12-18T10:53:57;-3.20;99.90
13245;DHT22;6689;53.400;12.486;2022-12-18T10:56:27;-3.10;99.90
13245;DHT22;6689;53.400;12.486;2022-12-18T10:59:02;-3.00;99.90
13245;DHT22;6689;53.400;12.486;2022-12-18T11:01:46;-3.00;99.90
13245;DHT22;6689;53.400;12.486;2022-12-18T11:04:21;-3.00;99.90
13245;DHT22;6689;53.400;12.486;2022-12-18T11:06:57;-3.00;99.90
13245;DHT22;6689;53.400;12.486;2022-12-18T11:09:26;-3.00;99.90
13245;DHT22;6689;53.400;12.486;2022-12-18T11:11:55;-3.00;99.90
13245;DHT22;6689;53.400;12.486;2022-12-18T11:14:26;-2.90;99.90
13245;DHT22;6689;53.400;12.486;2022-12-18T11:16:56;-2.90;99.90
13245;DHT22;6689;53.400;12.486;2022-12-18T11:19:32;-2.90;99.90
13245;DHT22;6689;53.400;12.486;2022-12-18T11:22:00;-2.80;99.90
13245;DHT22;6689;53.400;12.486;2022-12-18T11:24:30;-3.00;99.90
13245;DHT22;6689;53.400;12.486;2022-12-18T11:26:59;-2.80;99.90
13245;DHT22;6689;53.400;12.486;2022-12-18T11:29:35;-2.80;99.90
13245;DHT22;6689;53.400;12.486;2022-12-18T11:32:32;-2.80;99.90
13245;DHT22;6689;53.400;12.486;2022-12-18T11:35:04;-2.70;99.90
13245;DHT22;6689;53.400;12.486;2022-12-18T11:37:34;-2.70;99.90
13245;DHT22;6689;53.400;12.486;2022-12-18T11:40:10;-2.70;99.90
13245;DHT22;6689;53.400;12.486;2022-12-18T11:42:45;-2.70;99.90
13245;DHT22;6689;53.400;12.486;2022-12-18T11:45:35;-2.60;99.90
13245;DHT22;6689;53.400;12.486;2022-12-18T11:48:13;-2.60;99.90
13245;DHT22;6689;53.400;12.486;2022-12-18T11:50:46;-2.60;99.90
13245;DHT22;6689;53.400;12.486;2022-12-18T11:53:15;-2.60;99.90
13245;DHT22;6689;53.400;12.486;2022-12-18T11:55:49;-2.60;99.90
13245;DHT22;6689;53.400;12.486;2022-12-18T11:58:27;-2.40;99.90
13245;DHT22;6689;53.400;12.486;2022-12-18T12:01:04;-2.60;99.90
13245;DHT22;6689;53.400;12.486;2022-12-18T12:03:59;-2.60;99.90
13245;DHT22;6689;53.400;12.486;2022-12-18T12:06:33;-2.60;99.90
13245;DHT22;6689;53.400;12.486;2022-12-18T12:09:11;-2.60;99.90
13245;DHT22;6689;53.400;12.486;2022-12-18T12:11:52;-2.60;99.90
13245;DHT22;6689;53.400;12.486;2022-12-18T12:14:29;-2.60;99.90
13245;DHT22;6689;53.400;12.486;2022-12-18T12:17:07;-2.60;99.90
13245;DHT22;6689;53.400;12.486;2022-12-18T12:19:45;-2.60;99.90
13245;DHT22;6689;53.400;12.486;2022-12-18T12:22:23;-2.60;99.90
13245;DHT22;6689;53.400;12.486;2022-12-18T12:25:03;-2.60;99.90
13245;DHT22;6689;53.400;12.486;2022-12-18T12:27:43;-2.50;99.90
13245;DHT22;6689;53.400;12.486;2022-12-18T12:30:18;-2.40;99.90
13245;DHT22;6689;53.400;12.486;2022-12-18T12:33:01;-2.30;99.90
13245;DHT22;6689;53.400;12.486;2022-12-18T12:35:44;-2.30;99.90
13245;DHT22;6689;53.400;12.486;2022-12-18T12:38:15;-2.30;99.90
13245;DHT22;6689;53.400;12.486;2022-12-18T12:40:47;-2.30;99.90
13245;DHT22;6689;53.400;12.486;2022-12-18T12:43:28;-2.40;99.90
13245;DHT22;6689;53.400;12.486;2022-12-18T12:45:58;-2.40;99.90
13245;DHT22;6689;53.400;12.486;2022-12-18T12:48:36;-2.30;99.90
13245;DHT22;6689;53.400;12.486;2022-12-18T12:51:10;-2.50;99.90
13245;DHT22;6689;53.400;12.486;2022-12-18T12:53:39;-2.60;99.90
13245;DHT22;6689;53.400;12.486;2022-12-18T12:56:09;-2.50;99.90
13245;DHT22;6689;53.400;12.486;2022-12-18T12:58:42;-2.60;99.90
13245;DHT22;6689;53.400;12.486;2022-12-18T13:01:21;-2.50;99.90
13245;DHT22;6689;53.400;12.486;2022-12-18T13:03:58;-2.50;99.90
13245;DHT22;6689;53.400;12.486;2022-12-18T13:06:36;-2.50;99.90
13245;DHT22;6689;53.400;12.486;2022-12-18T13:09:04;-2.50;99.90
13245;DHT22;6689;53.400;12.486;2022-12-18T13:11:37;-2.50;99.90
13245;DHT22;6689;53.400;12.486;2022-12-18T13:14:24;-2.50;99.90
13245;DHT22;6689;53.400;12.486;2022-12-18T13:16:52;-2.60;99.90
13245;DHT22;6689;53.400;12.486;2022-12-18T13:19:41;-2.50;99.90
13245;DHT22;6689;53.400;12.486;2022-12-18T13:22:21;-2.60;99.90
13245;DHT22;6689;53.400;12.486;2022-12-18T13:24:48;-2.60;99.90
13245;DHT22;6689;53.400;12.486;2022-12-18T13:27:55;-2.50;99.90
13245;DHT22;6689;53.400;12.486;2022-12-18T13:30:46;-2.40;99.90
13245;DHT22;6689;53.400;12.486;2022-12-18T13:36:29;-2.40;99.90
13245;DHT22;6689;53.400;12.486;2022-12-18T13:39:31;-2.40;99.90
13245;DHT22;6689;53.400;12.486;2022-12-18T13:45:44;-2.60;99.90
13245;DHT22;6689;53.400;12.486;2022-12-18T13:48:18;-2.50;99.90
13245;DHT22;6689;53.400;12.486;2022-12-18T13:50:49;-2.50;99.90
13245;DHT22;6689;53.400;12.486;2022-12-18T13:53:26;-2.50;99.90
13245;DHT22;6689;53.400;12.486;2022-12-18T13:55:55;-2.50;99.90
13245;DHT22;6689;53.400;12.486;2022-12-18T13:58:22;-2.50;99.90
13245;DHT22;6689;53.400;12.486;2022-12-18T14:00:49;-2.50;99.90
13245;DHT22;6689;53.400;12.486;2022-12-18T14:03:19;-2.50;99.90
13245;DHT22;6689;53.400;12.486;2022-12-18T14:05:53;-2.60;99.90
13245;DHT22;6689;53.400;12.486;2022-12-18T14:08:23;-2.60;99.90
13245;DHT22;6689;53.400;12.486;2022-12-18T14:10:52;-2.60;99.90
13245;DHT22;6689;53.400;12.486;2022-12-18T14:13:24;-2.70;99.90
13245;DHT22;6689;53.400;12.486;2022-12-18T14:15:52;-2.80;99.90
13245;DHT22;6689;53.400;12.486;2022-12-18T14:18:22;-2.80;99.90
13245;DHT22;6689;53.400;12.486;2022-12-18T14:20:51;-2.80;99.90
13245;DHT22;6689;53.400;12.486;2022-12-18T14:23:29;-2.80;99.90
13245;DHT22;6689;53.400;12.486;2022-12-18T14:26:02;-2.80;99.90
13245;DHT22;6689;53.400;12.486;2022-12-18T14:28:30;-2.80;99.90
13245;DHT22;6689;53.400;12.486;2022-12-18T14:30:57;-3.00;99.90
13245;DHT22;6689;53.400;12.486;2022-12-18T14:33:26;-2.90;99.90
13245;DHT22;6689;53.400;12.486;2022-12-18T14:35:56;-2.90;99.90
13245;DHT22;6689;53.400;12.486;2022-12-18T14:38:30;-2.90;99.90
13245;DHT22;6689;53.400;12.486;2022-12-18T14:40:59;-3.00;99.90
13245;DHT22;6689;53.400;12.486;2022-12-18T14:43:28;-3.00;99.90
13245;DHT22;6689;53.400;12.486;2022-12-18T14:45:56;-3.00;99.90
13245;DHT22;6689;53.400;12.486;2022-12-18T14:48:39;-2.90;99.90
13245;DHT22;6689;53.400;12.486;2022-12-18T14:51:14;-2.90;99.90
13245;DHT22;6689;53.400;12.486;2022-12-18T14:53:46;-3.00;99.90
13245;DHT22;6689;53.400;12.486;2022-12-18T14:56:16;-3.00;99.90
13245;DHT22;6689;53.400;12.486;2022-12-18T14:58:48;-3.00;99.90
13245;DHT22;6689;53.400;12.486;2022-12-18T15:01:21;-3.00;99.90
13245;DHT22;6689;53.400;12.486;2022-12-18T15:03:51;-3.00;99.90
13245;DHT22;6689;53.400;12.486;2022-12-18T15:06:35;-3.00;99.90
13245;DHT22;6689;53.400;12.486;2022-12-18T15:09:20;-3.00;99.90
13245;DHT22;6689;53.400;12.486;2022-12-18T15:11:48;-3.10;99.90
13245;DHT22;6689;53.400;12.486;2022-12-18T15:14:33;-3.00;99.90
13245;DHT22;6689;53.400;12.486;2022-12-18T15:17:03;-3.10;99.90
13245;DHT22;6689;53.400;12.486;2022-12-18T15:19:36;-3.10;99.90
13245;DHT22;6689;53.400;12.486;2022-12-18T15:22:04;-3.20;99.90
13245;DHT22;6689;53.400;12.486;2022-12-18T15:24:41;-3.30;99.90
13245;DHT22;6689;53.400;12.486;2022-12-18T15:27:24;-3.20;99.90
13245;DHT22;6689;53.400;12.486;2022-12-18T15:30:11;-3.20;99.90
13245;DHT22;6689;53.400;12.486;2022-12-18T15:32:44;-3.40;99.90
13245;DHT22;6689;53.400;12.486;2022-12-18T15:35:15;-3.20;99.90
13245;DHT22;6689;53.400;12.486;2022-12-18T15:37:43;-3.20;99.90
13245;DHT22;6689;53.400;12.486;2022-12-18T15:40:14;-3.40;99.90
13245;DHT22;6689;53.400;12.486;2022-12-18T15:42:42;-3.30;99.90
13245;DHT22;6689;53.400;12.486;2022-12-18T15:45:27;-3.30;99.90
13245;DHT22;6689;53.400;12.486;2022-12-18T15:47:55;-3.20;99.90
13245;DHT22;6689;53.400;12.486;2022-12-18T15:50:23;-3.40;99.90
13245;DHT22;6689;53.400;12.486;2022-12-18T15:52:52;-3.30;99.90
13245;DHT22;6689;53.400;12.486;2022-12-18T15:55:23;-3.20;99.90
13245;DHT22;6689;53.400;12.486;2022-12-18T15:58:09;-3.20;99.90
13245;DHT22;6689;53.400;12.486;2022-12-18T16:00:39;-3.20;99.90